To NAV CANADA Home Page Login to a new session Search on AWWS site Feedback and Comments Disclaimer Vers la page française équivalente Tips FAQ What's new on the site To the Forecasts and Observations / NOTAM section To "File a Flight Plan" website Publications and other links Update of the User's profile FIC Telephone Numbers My Weather Data Folder Route Weather Data Regional Weather Data Local Weather Data To the Forecasts and Observations / NOTAM section
Request Generated 04/30/2016 at 09:03:42 UTC . Weather information available at that time is displayed.

METAR/TAF

TRENTON/ON    

METAR CYTR 300900Z 36003KT 15SM SKC 01/M04 A3019 RMK SLP229=
METAR CYTR 300800Z 36003KT 15SM FEW100 00/M05 A3019 RMK AC1 SLP226=
METAR CYTR 300700Z 35002KT 15SM FEW100 00/M04 A3017 RMK AC1 SLP220=

TAF CYTR 300530Z 3006/0106 VRB03KT P6SM SCT050
BECMG 3015/3017 09010KT
FM010000 08010KT P6SM FEW050 SCT100 BKN250
RMK NXT FCST BY 301200Z=
Your time UTC time
Weather data provided by Environment Canada and NAV CANADA